createdAt,value
2022-08-20T00:00:36.278Z,12.20
2022-08-20T00:03:07.080Z,14.30
2022-08-20T00:05:37.440Z,14.60
2022-08-20T00:08:06.376Z,15.48
2022-08-20T00:10:37.731Z,14.23
2022-08-20T00:13:08.631Z,13.73
2022-08-20T00:15:39.924Z,17.77
2022-08-20T00:18:09.108Z,14.57
2022-08-20T00:20:46.021Z,14.45
2022-08-20T00:23:15.118Z,14.07
2022-08-20T00:25:44.067Z,16.65
2022-08-20T00:28:13.101Z,14.90
2022-08-20T00:30:45.841Z,14.45
2022-08-20T00:33:17.584Z,16.70
2022-08-20T00:35:56.596Z,16.77
2022-08-20T00:38:25.847Z,14.60
2022-08-20T00:40:56.622Z,14.82
2022-08-20T00:43:35.683Z,15.98
2022-08-20T00:46:08.996Z,16.30
2022-08-20T00:48:39.563Z,17.02
2022-08-20T00:51:11.270Z,17.65
2022-08-20T00:53:40.698Z,16.45
2022-08-20T00:56:10.625Z,17.38
2022-08-20T00:58:41.232Z,15.75
2022-08-20T01:01:11.147Z,18.23
2022-08-20T01:03:43.432Z,15.98
2022-08-20T01:06:12.541Z,16.67
2022-08-20T01:08:42.665Z,17.60
2022-08-20T01:11:13.010Z,18.23
2022-08-20T01:13:42.685Z,13.88
2022-08-20T01:16:19.959Z,15.63
2022-08-20T01:18:49.701Z,17.48
2022-08-20T01:21:22.818Z,16.50
2022-08-20T01:23:57.024Z,16.80
2022-08-20T01:26:29.374Z,17.20
2022-08-20T01:28:58.929Z,15.70
2022-08-20T01:31:28.515Z,17.88
2022-08-20T01:33:57.815Z,16.27
2022-08-20T01:36:30.369Z,17.38
2022-08-20T01:38:59.254Z,17.92
2022-08-20T01:41:36.465Z,16.90
2022-08-20T01:44:05.878Z,16.48
2022-08-20T01:46:43.661Z,17.25
2022-08-20T01:49:23.412Z,18.70
2022-08-20T01:51:52.937Z,16.77
2022-08-20T01:54:21.916Z,17.02
2022-08-20T01:56:56.947Z,17.40
2022-08-20T01:59:26.585Z,17.00
2022-08-20T02:01:55.704Z,17.85
2022-08-20T02:04:25.012Z,16.23
2022-08-20T02:06:57.346Z,16.33
2022-08-20T02:09:27.222Z,17.67
2022-08-20T02:11:57.550Z,15.20
2022-08-20T02:14:26.529Z,17.70
2022-08-20T02:16:58.350Z,16.42
2022-08-20T02:19:29.558Z,17.48
2022-08-20T02:22:00.477Z,15.55
2022-08-20T02:24:29.979Z,16.73
2022-08-20T02:26:59.806Z,15.55
2022-08-20T02:29:28.388Z,18.25
2022-08-20T02:32:24.736Z,16.88
2022-08-20T02:34:45.409Z,16.40
2022-08-20T02:37:18.370Z,18.05
2022-08-20T02:39:47.154Z,17.10
2022-08-20T02:42:17.395Z,15.52
2022-08-20T02:44:46.401Z,16.50
2022-08-20T02:47:14.855Z,16.58
2022-08-20T02:49:43.257Z,19.80
2022-08-20T02:52:11.653Z,17.52
2022-08-20T02:54:40.062Z,17.67
2022-08-20T02:57:13.943Z,15.88
2022-08-20T02:59:45.250Z,16.98
2022-08-20T03:02:13.754Z,17.25
2022-08-20T03:04:42.892Z,17.55
2022-08-20T03:07:11.565Z,18.23
2022-08-20T03:09:40.102Z,21.25
2022-08-20T03:12:08.654Z,21.55
2022-08-20T03:14:37.521Z,21.55
2022-08-20T03:17:07.410Z,22.27
2022-08-20T03:19:35.952Z,19.65
2022-08-20T03:22:04.355Z,20.45
2022-08-20T03:24:33.156Z,25.73
2022-08-20T03:27:01.541Z,18.90
2022-08-20T03:29:30.095Z,21.23
2022-08-20T03:31:58.552Z,17.65
2022-08-20T03:34:29.402Z,18.95
2022-08-20T03:36:57.805Z,19.80
2022-08-20T03:39:26.233Z,18.38
2022-08-20T03:41:55.202Z,18.77
2022-08-20T03:44:23.691Z,18.42
2022-08-20T03:46:52.146Z,20.52
2022-08-20T03:49:20.934Z,19.95
2022-08-20T03:51:57.242Z,18.48
2022-08-20T03:54:31.822Z,20.77
2022-08-20T03:57:01.426Z,19.02
2022-08-20T03:59:29.960Z,20.60
2022-08-20T04:01:58.483Z,20.88
2022-08-20T04:04:26.952Z,18.40
2022-08-20T04:06:56.790Z,22.98
2022-08-20T04:09:25.181Z,20.92
2022-08-20T04:12:00.205Z,20.08
2022-08-20T04:14:29.337Z,22.23
2022-08-20T04:16:58.589Z,20.83
2022-08-20T04:19:30.142Z,20.58
2022-08-20T04:22:02.338Z,21.45
2022-08-20T04:24:32.630Z,20.77
2022-08-20T04:27:02.540Z,19.15
2022-08-20T04:29:32.588Z,20.02
2022-08-20T04:32:02.819Z,20.20
2022-08-20T04:34:34.629Z,21.55
2022-08-20T04:37:04.886Z,21.55
2022-08-20T04:39:33.427Z,20.17
2022-08-20T04:42:00.891Z,19.73
2022-08-20T04:44:29.606Z,19.88
2022-08-20T04:46:58.415Z,21.88
2022-08-20T04:49:28.008Z,20.50
2022-08-20T04:51:57.601Z,21.60
2022-08-20T04:54:27.431Z,20.73
2022-08-20T04:56:55.958Z,19.90
2022-08-20T04:59:24.726Z,21.92
2022-08-20T05:01:53.177Z,18.58
2022-08-20T05:04:21.592Z,19.30
2022-08-20T05:06:50.450Z,18.67
2022-08-20T05:09:19.229Z,21.30
2022-08-20T05:11:49.257Z,20.52
2022-08-20T05:14:17.913Z,19.58
2022-08-20T05:16:47.002Z,20.13
2022-08-20T05:19:15.643Z,18.67
2022-08-20T05:21:45.369Z,19.08
2022-08-20T05:24:16.507Z,17.50
2022-08-20T05:26:45.049Z,17.83
2022-08-20T05:29:15.433Z,18.80
2022-08-20T05:31:43.885Z,19.15
2022-08-20T05:34:13.077Z,18.98
2022-08-20T05:36:41.778Z,17.20
2022-08-20T05:39:10.419Z,17.75
2022-08-20T05:41:40.792Z,16.08
2022-08-20T05:44:10.872Z,18.83
2022-08-20T05:46:41.674Z,17.40
2022-08-20T05:49:11.997Z,17.88
2022-08-20T05:51:40.441Z,15.85
2022-08-20T05:54:09.789Z,17.65
2022-08-20T05:56:38.688Z,14.50
2022-08-20T05:59:07.976Z,15.93
2022-08-20T06:01:37.632Z,15.43
2022-08-20T06:04:25.260Z,17.48
2022-08-20T06:06:53.966Z,15.75
2022-08-20T06:09:31.127Z,15.82
2022-08-20T06:12:06.508Z,16.02
2022-08-20T06:14:34.893Z,16.67
2022-08-20T06:17:07.625Z,15.57
2022-08-20T06:19:38.582Z,15.40
2022-08-20T06:22:17.915Z,15.88
2022-08-20T06:24:54.123Z,17.27
2022-08-20T06:27:23.436Z,16.75
2022-08-20T06:29:53.365Z,15.90
2022-08-20T06:32:28.735Z,17.88
2022-08-20T06:35:03.881Z,16.90
2022-08-20T06:37:33.081Z,14.45
2022-08-20T06:40:04.090Z,14.73
2022-08-20T06:42:32.621Z,17.15
2022-08-20T06:45:04.856Z,15.32
2022-08-20T06:47:33.477Z,14.15
2022-08-20T06:50:03.205Z,12.73
2022-08-20T06:53:03.133Z,14.10
2022-08-20T06:55:19.993Z,15.95
2022-08-20T06:57:48.895Z,14.82
2022-08-20T07:00:20.738Z,14.45
2022-08-20T07:02:50.283Z,13.48
2022-08-20T07:05:20.075Z,13.80
2022-08-20T07:07:51.129Z,15.55
2022-08-20T07:10:21.042Z,12.57
2022-08-20T07:12:51.118Z,15.45
2022-08-20T07:15:21.263Z,12.77
2022-08-20T07:17:56.404Z,14.32
2022-08-20T07:20:32.771Z,14.30
2022-08-20T07:23:01.690Z,13.68
2022-08-20T07:25:31.819Z,15.15
2022-08-20T07:28:02.802Z,12.40
2022-08-20T07:30:56.049Z,12.93
2022-08-20T07:33:26.240Z,13.00
2022-08-20T07:35:58.485Z,11.88
2022-08-20T07:38:28.264Z,15.43
2022-08-20T07:40:58.471Z,13.43
2022-08-20T07:43:27.654Z,14.27
2022-08-20T07:46:00.784Z,14.30
2022-08-20T07:48:32.537Z,13.77
2022-08-20T07:51:04.561Z,14.23
2022-08-20T07:53:35.667Z,13.25
2022-08-20T07:56:05.929Z,13.25
2022-08-20T07:58:35.860Z,13.35
2022-08-20T08:01:05.152Z,12.88
2022-08-20T08:03:41.108Z,15.45
2022-08-20T08:06:29.585Z,11.82
2022-08-20T08:09:03.175Z,12.82
2022-08-20T08:11:33.638Z,13.13
2022-08-20T08:14:05.314Z,12.57
2022-08-20T08:16:36.155Z,13.85
2022-08-20T08:19:08.625Z,15.07
2022-08-20T08:21:41.282Z,12.73
2022-08-20T08:24:12.746Z,12.27
2022-08-20T08:26:43.146Z,12.82
2022-08-20T08:29:12.113Z,14.50
2022-08-20T08:31:41.103Z,12.48
2022-08-20T08:34:09.641Z,12.90
2022-08-20T08:36:39.231Z,10.77
2022-08-20T08:39:07.817Z,11.02
2022-08-20T08:41:38.049Z,10.63
2022-08-20T08:44:09.458Z,12.65
2022-08-20T08:46:41.769Z,11.43
2022-08-20T08:49:13.194Z,10.25
2022-08-20T08:51:46.298Z,11.23
2022-08-20T08:54:17.865Z,10.05
2022-08-20T08:56:49.692Z,8.90
2022-08-20T08:59:20.893Z,9.07
2022-08-20T09:01:55.920Z,8.20
2022-08-20T09:04:32.564Z,7.50
2022-08-20T09:07:04.414Z,7.10
2022-08-20T09:09:36.952Z,8.15
2022-08-20T09:12:07.796Z,6.95
2022-08-20T09:14:36.432Z,8.23
2022-08-20T09:17:05.410Z,7.05
2022-08-20T09:19:34.316Z,7.57
2022-08-20T09:22:10.302Z,6.82
2022-08-20T09:24:38.829Z,6.38
2022-08-20T09:27:07.660Z,7.47
2022-08-20T09:29:36.360Z,7.10
2022-08-20T09:32:09.431Z,7.68
2022-08-20T09:34:39.043Z,9.02
2022-08-20T09:37:10.338Z,7.03
2022-08-20T09:39:44.691Z,7.53
2022-08-20T09:42:15.372Z,6.68
2022-08-20T09:44:43.509Z,6.45
2022-08-20T09:47:11.918Z,6.82
2022-08-20T09:49:41.004Z,6.85
2022-08-20T09:52:14.963Z,7.32
2022-08-20T09:54:46.201Z,6.13
2022-08-20T09:57:15.131Z,6.53
2022-08-20T09:59:43.729Z,7.90
2022-08-20T10:02:11.887Z,6.05
2022-08-20T10:04:40.350Z,6.53
2022-08-20T10:07:11.239Z,8.68
2022-08-20T10:09:40.151Z,6.43
2022-08-20T10:12:09.037Z,4.85
2022-08-20T10:14:37.474Z,4.35
2022-08-20T10:17:05.973Z,3.22
2022-08-20T10:19:34.603Z,3.38
2022-08-20T10:22:03.182Z,4.03
2022-08-20T10:24:33.148Z,4.63
2022-08-20T10:27:02.870Z,3.30
2022-08-20T10:29:31.589Z,3.10
2022-08-20T10:32:13.559Z,3.20
2022-08-20T10:34:42.270Z,3.13
2022-08-20T10:37:11.041Z,3.38
2022-08-20T10:39:41.195Z,2.60
2022-08-20T10:42:10.272Z,1.83
2022-08-20T10:44:39.012Z,2.35
2022-08-20T10:47:21.574Z,1.42
2022-08-20T10:49:50.653Z,1.70
2022-08-20T10:52:19.190Z,2.42
2022-08-20T10:54:49.420Z,2.10
2022-08-20T10:57:20.020Z,4.18
2022-08-20T10:59:50.687Z,1.90
2022-08-20T11:02:21.416Z,1.80
2022-08-20T11:04:50.593Z,1.30
2022-08-20T11:07:22.319Z,2.28
2022-08-20T11:10:14.000Z,2.20
2022-08-20T11:12:43.597Z,1.45
2022-08-20T11:15:14.885Z,1.00
2022-08-20T11:17:44.678Z,1.30
2022-08-20T11:20:15.246Z,1.02
2022-08-20T11:22:43.430Z,1.35
2022-08-20T11:25:13.260Z,0.77
2022-08-20T11:27:44.228Z,1.15
2022-08-20T11:30:16.422Z,1.63
2022-08-20T11:32:44.699Z,1.38
2022-08-20T11:35:40.942Z,3.40
2022-08-20T11:38:02.710Z,1.00
2022-08-20T11:40:32.662Z,1.98
2022-08-20T11:43:17.454Z,2.42
2022-08-20T11:45:48.219Z,1.80
2022-08-20T11:48:16.968Z,2.78
2022-08-20T11:50:45.530Z,2.45
2022-08-20T11:53:14.987Z,1.55
2022-08-20T11:55:44.742Z,1.88
2022-08-20T11:58:14.107Z,1.63
2022-08-20T12:00:42.569Z,1.30
2022-08-20T12:03:11.576Z,2.13
2022-08-20T12:05:41.036Z,1.67
2022-08-20T12:08:09.546Z,0.90
2022-08-20T12:10:38.118Z,1.23
2022-08-20T12:13:08.550Z,0.80
2022-08-20T12:15:37.760Z,1.48
2022-08-20T12:18:07.750Z,1.75
2022-08-20T12:20:36.702Z,1.65
2022-08-20T12:23:05.460Z,1.08
2022-08-20T12:25:34.039Z,1.23
2022-08-20T12:28:02.265Z,2.25
2022-08-20T12:30:32.541Z,1.63
2022-08-20T12:33:01.491Z,3.83
2022-08-20T12:35:30.159Z,1.33
2022-08-20T12:38:00.088Z,2.67
2022-08-20T12:40:32.438Z,2.08
2022-08-20T12:43:01.752Z,2.65
2022-08-20T12:45:30.294Z,2.40
2022-08-20T12:48:04.319Z,1.77
2022-08-20T12:50:33.079Z,1.55
2022-08-20T12:53:01.795Z,1.92
2022-08-20T12:55:30.613Z,1.83
2022-08-20T12:58:00.415Z,1.27
2022-08-20T13:00:34.119Z,1.90
2022-08-20T13:03:05.189Z,1.40
2022-08-20T13:05:33.980Z,1.80
2022-08-20T13:08:02.785Z,1.50
2022-08-20T13:10:32.273Z,0.82
2022-08-20T13:13:02.108Z,0.80
2022-08-20T13:15:33.714Z,1.45
2022-08-20T13:18:04.839Z,1.52
2022-08-20T13:20:34.263Z,0.98
2022-08-20T13:23:03.964Z,0.82
2022-08-20T13:25:32.455Z,0.60
2022-08-20T13:28:03.854Z,1.27
2022-08-20T13:30:33.219Z,1.00
2022-08-20T13:33:01.503Z,0.82
2022-08-20T13:35:31.495Z,0.98
2022-08-20T13:37:59.641Z,1.40
2022-08-20T13:40:28.269Z,1.10
2022-08-20T13:42:56.624Z,2.20
2022-08-20T13:45:25.386Z,1.00
2022-08-20T13:47:55.803Z,1.35
2022-08-20T13:50:26.461Z,1.92
2022-08-20T13:52:56.563Z,1.45
2022-08-20T13:55:26.216Z,3.67
2022-08-20T13:57:55.237Z,0.88
2022-08-20T14:00:31.738Z,1.60
2022-08-20T14:03:00.927Z,1.55
2022-08-20T14:05:29.611Z,1.98
2022-08-20T14:08:06.132Z,1.60
2022-08-20T14:10:34.581Z,1.98
2022-08-20T14:13:03.780Z,3.72
2022-08-20T14:15:32.353Z,5.45
2022-08-20T14:18:01.253Z,2.38
2022-08-20T14:20:31.994Z,1.90
2022-08-20T14:23:02.984Z,5.00
2022-08-20T14:25:33.177Z,2.50
2022-08-20T14:28:10.684Z,1.90
2022-08-20T14:30:39.218Z,3.60
2022-08-20T14:33:07.837Z,1.77
2022-08-20T14:35:36.481Z,1.85
2022-08-20T14:38:06.315Z,5.43
2022-08-20T14:40:35.325Z,3.15
2022-08-20T14:43:04.321Z,1.00
2022-08-20T14:45:32.951Z,1.65
2022-08-20T14:48:01.686Z,2.35
2022-08-20T14:50:31.426Z,1.85
2022-08-20T14:52:59.930Z,6.07
2022-08-20T14:55:32.188Z,1.67
2022-08-20T14:58:00.773Z,2.55
2022-08-20T15:00:30.511Z,0.68
2022-08-20T15:02:59.274Z,3.20
2022-08-20T15:05:27.925Z,1.73
2022-08-20T15:07:59.412Z,2.70
2022-08-20T15:10:29.057Z,1.58
2022-08-20T15:12:59.140Z,2.75
2022-08-20T15:15:27.851Z,4.32
2022-08-20T15:17:57.902Z,3.92
2022-08-20T15:20:27.927Z,3.92
2022-08-20T15:22:56.910Z,2.63
2022-08-20T15:25:26.720Z,2.03
2022-08-20T15:27:58.389Z,2.67
2022-08-20T15:30:33.390Z,3.17
2022-08-20T15:33:02.314Z,2.20
2022-08-20T15:35:31.124Z,3.25
2022-08-20T15:38:00.621Z,2.13
2022-08-20T15:40:30.223Z,6.03
2022-08-20T15:42:59.442Z,2.13
2022-08-20T15:45:28.132Z,2.85
2022-08-20T15:48:03.281Z,3.17
2022-08-20T15:51:02.913Z,2.70
2022-08-20T15:53:33.828Z,1.63
2022-08-20T15:56:11.461Z,2.08
2022-08-20T15:58:46.193Z,7.65
2022-08-20T16:01:25.109Z,1.77
2022-08-20T16:04:05.287Z,3.25
2022-08-20T16:06:34.731Z,3.97
2022-08-20T16:09:09.008Z,2.33
2022-08-20T16:11:47.273Z,4.30
2022-08-20T16:14:17.512Z,3.20
2022-08-20T16:16:47.069Z,2.05
2022-08-20T16:19:20.455Z,5.03
2022-08-20T16:21:49.028Z,1.73
2022-08-20T16:24:17.585Z,4.88
2022-08-20T16:26:53.326Z,2.33
2022-08-20T16:29:26.552Z,2.55
2022-08-20T16:31:57.047Z,3.72
2022-08-20T16:34:33.271Z,3.85
2022-08-20T16:37:06.811Z,1.92
2022-08-20T16:39:39.133Z,3.00
2022-08-20T16:42:10.465Z,2.97
2022-08-20T16:44:40.637Z,7.00
2022-08-20T16:47:15.865Z,2.55
2022-08-20T16:49:48.071Z,3.58
2022-08-20T16:52:16.710Z,3.90
2022-08-20T16:54:46.229Z,2.47
2022-08-20T16:57:17.358Z,2.05
2022-08-20T16:59:59.788Z,4.03
2022-08-20T17:02:28.554Z,2.10
2022-08-20T17:05:04.768Z,2.13
2022-08-20T17:07:46.215Z,2.47
2022-08-20T17:10:17.270Z,1.88
2022-08-20T17:12:47.040Z,2.33
2022-08-20T17:15:23.172Z,2.67
2022-08-20T17:17:51.653Z,2.03
2022-08-20T17:20:21.749Z,4.07
2022-08-20T17:22:51.301Z,2.53
2022-08-20T17:25:20.853Z,2.65
2022-08-20T17:27:49.736Z,3.65
2022-08-20T17:30:22.079Z,1.17
2022-08-20T17:32:57.898Z,2.15
2022-08-20T17:35:31.072Z,1.58
2022-08-20T17:38:01.052Z,2.95
2022-08-20T17:40:31.544Z,2.22
2022-08-20T17:43:02.369Z,1.73
2022-08-20T17:45:33.890Z,2.83
2022-08-20T17:48:03.819Z,3.10
2022-08-20T17:50:34.972Z,1.58
2022-08-20T17:53:07.002Z,1.50
2022-08-20T17:55:37.128Z,1.80
2022-08-20T17:58:08.313Z,3.13
2022-08-20T18:00:36.762Z,2.45
2022-08-20T18:03:11.538Z,4.68
2022-08-20T18:05:41.494Z,1.77
2022-08-20T18:08:16.873Z,3.55
2022-08-20T18:11:00.441Z,3.28
2022-08-20T18:13:34.748Z,2.38
2022-08-20T18:16:03.991Z,4.85
2022-08-20T18:18:33.469Z,4.55
2022-08-20T18:21:12.947Z,3.63
2022-08-20T18:23:43.354Z,5.38
2022-08-20T18:26:18.637Z,8.77
2022-08-20T18:28:48.562Z,3.05
2022-08-20T18:31:26.736Z,3.00
2022-08-20T18:33:55.517Z,2.75
2022-08-20T18:36:30.319Z,5.47
2022-08-20T18:39:00.689Z,4.78
2022-08-20T18:41:29.883Z,3.90
2022-08-20T18:44:06.389Z,9.55
2022-08-20T18:46:35.012Z,9.07
2022-08-20T18:49:05.039Z,4.93
2022-08-20T18:51:41.483Z,4.78
2022-08-20T18:54:10.085Z,7.55
2022-08-20T18:56:40.790Z,3.80
2022-08-20T18:59:14.795Z,4.05
2022-08-20T19:01:44.203Z,10.02
2022-08-20T19:04:22.352Z,39.70
2022-08-20T19:06:57.418Z,21.25
2022-08-20T19:09:44.116Z,14.18
2022-08-20T19:12:30.937Z,7.15
2022-08-20T19:15:01.833Z,8.20
2022-08-20T19:17:48.372Z,7.07
2022-08-20T19:20:19.112Z,3.97
2022-08-20T19:22:50.843Z,4.00
2022-08-20T19:25:26.695Z,3.10
2022-08-20T19:27:55.161Z,4.78
2022-08-20T19:30:33.216Z,6.28
2022-08-20T19:33:02.518Z,4.80
2022-08-20T19:35:31.498Z,2.95
2022-08-20T19:38:02.334Z,4.45
2022-08-20T19:40:33.157Z,5.75
2022-08-20T19:43:09.348Z,4.88
2022-08-20T19:45:39.655Z,6.47
2022-08-20T19:48:27.145Z,5.65
2022-08-20T19:50:59.379Z,5.25
2022-08-20T19:53:31.152Z,6.85
2022-08-20T19:56:01.073Z,5.05
2022-08-20T19:58:29.885Z,5.80
2022-08-20T20:00:59.031Z,5.90
2022-08-20T20:03:29.762Z,6.57
2022-08-20T20:06:00.625Z,6.50
2022-08-20T20:08:31.125Z,7.18
2022-08-20T20:11:00.969Z,6.55
2022-08-20T20:13:31.271Z,5.80
2022-08-20T20:16:05.146Z,5.30
2022-08-20T20:18:36.919Z,2.85
2022-08-20T20:21:13.526Z,4.45
2022-08-20T20:23:46.881Z,4.03
2022-08-20T20:26:20.113Z,5.00
2022-08-20T20:28:56.096Z,6.93
2022-08-20T20:31:26.881Z,7.13
2022-08-20T20:33:57.384Z,4.72
2022-08-20T20:36:35.092Z,4.20
2022-08-20T20:39:14.212Z,7.40
2022-08-20T20:41:51.813Z,5.25
2022-08-20T20:44:22.127Z,5.25
2022-08-20T20:46:57.493Z,6.07
2022-08-20T20:49:27.371Z,6.05
2022-08-20T20:51:57.522Z,9.85
2022-08-20T20:54:28.721Z,6.00
2022-08-20T20:57:01.888Z,6.38
2022-08-20T20:59:30.973Z,7.07
2022-08-20T21:01:59.691Z,5.35
2022-08-20T21:04:29.080Z,3.58
2022-08-20T21:06:58.495Z,4.72
2022-08-20T21:09:28.502Z,4.70
2022-08-20T21:11:56.953Z,4.82
2022-08-20T21:14:25.435Z,5.15
2022-08-20T21:16:54.453Z,2.47
2022-08-20T21:19:23.069Z,4.38
2022-08-20T21:21:51.574Z,2.75
2022-08-20T21:24:20.272Z,6.15
2022-08-20T21:26:51.076Z,4.35
2022-08-20T21:29:22.867Z,3.65
2022-08-20T21:31:51.323Z,5.15
2022-08-20T21:34:19.845Z,5.28
2022-08-20T21:36:48.692Z,3.25
2022-08-20T21:39:17.529Z,3.08
2022-08-20T21:41:46.778Z,7.13
2022-08-20T21:44:21.318Z,5.47
2022-08-20T21:46:50.059Z,3.90
2022-08-20T21:49:19.549Z,4.40
2022-08-20T21:51:48.227Z,6.25
2022-08-20T21:54:17.003Z,4.00
2022-08-20T21:56:46.551Z,7.65
2022-08-20T21:59:15.074Z,5.07
2022-08-20T22:01:45.002Z,4.53
2022-08-20T22:04:14.248Z,7.53
2022-08-20T22:06:42.711Z,3.88
2022-08-20T22:09:12.709Z,3.97
2022-08-20T22:11:41.154Z,3.80
2022-08-20T22:14:10.599Z,4.65
2022-08-20T22:16:39.194Z,2.70
2022-08-20T22:19:16.180Z,5.25
2022-08-20T22:21:44.698Z,8.27
2022-08-20T22:24:13.725Z,8.13
2022-08-20T22:26:43.225Z,6.40
2022-08-20T22:29:12.254Z,9.55
2022-08-20T22:31:42.365Z,7.88
2022-08-20T22:34:12.203Z,12.55
2022-08-20T22:36:42.057Z,6.82
2022-08-20T22:39:10.722Z,6.40
2022-08-20T22:41:39.502Z,8.00
2022-08-20T22:44:08.077Z,6.78
2022-08-20T22:46:40.038Z,7.40
2022-08-20T22:49:12.890Z,13.80
2022-08-20T22:51:45.053Z,9.82
2022-08-20T22:54:17.954Z,8.55
2022-08-20T22:56:46.379Z,7.32
2022-08-20T22:59:16.338Z,11.90
2022-08-20T23:01:46.618Z,8.93
2022-08-20T23:04:15.622Z,5.78
2022-08-20T23:06:51.925Z,7.03
2022-08-20T23:09:21.157Z,5.80
2022-08-20T23:11:49.694Z,8.82
2022-08-20T23:14:18.252Z,7.38
2022-08-20T23:16:47.789Z,5.97
2022-08-20T23:19:18.535Z,6.32
2022-08-20T23:21:53.706Z,8.77
2022-08-20T23:24:22.313Z,7.78
2022-08-20T23:26:55.996Z,10.35
2022-08-20T23:29:25.443Z,10.02
2022-08-20T23:31:55.288Z,9.75
2022-08-20T23:34:23.661Z,7.88
2022-08-20T23:36:53.968Z,7.05
2022-08-20T23:39:22.826Z,7.60
2022-08-20T23:41:51.260Z,6.80
2022-08-20T23:44:26.138Z,7.57
2022-08-20T23:46:55.659Z,6.53
2022-08-20T23:49:24.220Z,7.88
2022-08-20T23:51:53.992Z,25.10
2022-08-20T23:54:22.445Z,7.38
2022-08-20T23:56:50.891Z,5.70
2022-08-20T23:59:19.653Z,6.35
